sensor_id;sensor_type;location;lat;lon;timestamp;temperature;humidity
78325;DHT22;67584;51.400;6.692;2023-03-12T05:56:15;2.80;72.40
78325;DHT22;67584;51.400;6.692;2023-03-12T07:10:16;3.20;79.40
78325;DHT22;67584;51.400;6.692;2023-03-12T07:12:46;3.30;79.60
78325;DHT22;67584;51.400;6.692;2023-03-12T07:15:14;3.20;79.00
78325;DHT22;67584;51.400;6.692;2023-03-12T07:17:43;3.20;80.00
78325;DHT22;67584;51.400;6.692;2023-03-12T07:20:09;3.20;80.00
78325;DHT22;67584;51.400;6.692;2023-03-12T07:22:42;3.10;78.40
78325;DHT22;67584;51.400;6.692;2023-03-12T07:25:11;3.20;79.20
78325;DHT22;67584;51.400;6.692;2023-03-12T07:27:44;2.90;79.40
78325;DHT22;67584;51.400;6.692;2023-03-12T07:30:16;3.20;79.20
78325;DHT22;67584;51.400;6.692;2023-03-12T07:32:49;3.20;79.10
78325;DHT22;67584;51.400;6.692;2023-03-12T07:35:18;3.10;78.90
78325;DHT22;67584;51.400;6.692;2023-03-12T07:37:47;3.10;78.50
78325;DHT22;67584;51.400;6.692;2023-03-12T07:40:12;2.90;79.00
78325;DHT22;67584;51.400;6.692;2023-03-12T07:42:38;3.10;79.30
78325;DHT22;67584;51.400;6.692;2023-03-12T07:45:05;3.10;79.80
78325;DHT22;67584;51.400;6.692;2023-03-12T07:47:32;3.30;79.90
78325;DHT22;67584;51.400;6.692;2023-03-12T07:49:58;3.20;80.20
78325;DHT22;67584;51.400;6.692;2023-03-12T07:52:26;3.40;79.40
78325;DHT22;67584;51.400;6.692;2023-03-12T07:54:54;3.30;79.50
78325;DHT22;67584;51.400;6.692;2023-03-12T07:57:25;3.40;79.70
78325;DHT22;67584;51.400;6.692;2023-03-12T07:59:53;3.50;79.50
78325;DHT22;67584;51.400;6.692;2023-03-12T08:02:22;3.60;79.30
78325;DHT22;67584;51.400;6.692;2023-03-12T08:04:50;3.40;79.50
78325;DHT22;67584;51.400;6.692;2023-03-12T08:07:16;3.50;79.20
78325;DHT22;67584;51.400;6.692;2023-03-12T08:09:45;3.40;79.30
78325;DHT22;67584;51.400;6.692;2023-03-12T08:12:16;3.60;79.10
78325;DHT22;67584;51.400;6.692;2023-03-12T08:14:42;3.50;79.00
78325;DHT22;67584;51.400;6.692;2023-03-12T08:17:08;3.50;78.40
78325;DHT22;67584;51.400;6.692;2023-03-12T08:19:45;3.80;78.50
78325;DHT22;67584;51.400;6.692;2023-03-12T08:22:12;3.80;78.60
78325;DHT22;67584;51.400;6.692;2023-03-12T08:24:43;3.80;78.80
78325;DHT22;67584;51.400;6.692;2023-03-12T08:27:29;4.10;80.20
78325;DHT22;67584;51.400;6.692;2023-03-12T08:30:03;4.40;78.60
78325;DHT22;67584;51.400;6.692;2023-03-12T08:32:29;4.10;80.20
78325;DHT22;67584;51.400;6.692;2023-03-12T08:34:55;4.20;80.90
78325;DHT22;67584;51.400;6.692;2023-03-12T08:37:25;4.40;81.30
78325;DHT22;67584;51.400;6.692;2023-03-12T08:39:51;4.30;80.90
78325;DHT22;67584;51.400;6.692;2023-03-12T08:42:20;4.00;81.60
78325;DHT22;67584;51.400;6.692;2023-03-12T08:44:54;4.30;81.60
78325;DHT22;67584;51.400;6.692;2023-03-12T08:47:23;4.20;82.10
78325;DHT22;67584;51.400;6.692;2023-03-12T08:49:52;4.20;82.80
78325;DHT22;67584;51.400;6.692;2023-03-12T08:52:26;4.50;82.50
78325;DHT22;67584;51.400;6.692;2023-03-12T08:54:58;4.30;83.20
78325;DHT22;67584;51.400;6.692;2023-03-12T08:57:30;4.20;84.70
78325;DHT22;67584;51.400;6.692;2023-03-12T08:59:56;4.00;85.40
78325;DHT22;67584;51.400;6.692;2023-03-12T09:02:25;3.70;85.40
78325;DHT22;67584;51.400;6.692;2023-03-12T09:04:54;3.80;86.50
78325;DHT22;67584;51.400;6.692;2023-03-12T09:07:20;3.80;87.10
78325;DHT22;67584;51.400;6.692;2023-03-12T09:09:58;3.60;87.80
78325;DHT22;67584;51.400;6.692;2023-03-12T09:12:24;3.70;88.00
78325;DHT22;67584;51.400;6.692;2023-03-12T09:14:51;3.50;88.10
78325;DHT22;67584;51.400;6.692;2023-03-12T09:17:17;3.80;88.00
78325;DHT22;67584;51.400;6.692;2023-03-12T09:19:46;3.80;88.30
78325;DHT22;67584;51.400;6.692;2023-03-12T09:22:17;3.80;89.10
78325;DHT22;67584;51.400;6.692;2023-03-12T09:24:54;3.80;88.60
78325;DHT22;67584;51.400;6.692;2023-03-12T09:27:21;3.80;89.00
78325;DHT22;67584;51.400;6.692;2023-03-12T09:29:57;3.70;89.10
78325;DHT22;67584;51.400;6.692;2023-03-12T09:32:35;3.60;89.70
78325;DHT22;67584;51.400;6.692;2023-03-12T09:35:04;3.70;89.80
78325;DHT22;67584;51.400;6.692;2023-03-12T09:37:37;3.50;90.30
78325;DHT22;67584;51.400;6.692;2023-03-12T09:40:27;3.70;90.40
78325;DHT22;67584;51.400;6.692;2023-03-12T09:45:51;3.70;90.80
78325;DHT22;67584;51.400;6.692;2023-03-12T09:48:35;3.90;91.00
78325;DHT22;67584;51.400;6.692;2023-03-12T09:53:39;3.50;91.40
78325;DHT22;67584;51.400;6.692;2023-03-12T09:56:13;3.90;91.60
78325;DHT22;67584;51.400;6.692;2023-03-12T09:58:39;4.00;91.60
78325;DHT22;67584;51.400;6.692;2023-03-12T10:01:52;4.00;91.50
78325;DHT22;67584;51.400;6.692;2023-03-12T10:07:18;4.10;91.40
78325;DHT22;67584;51.400;6.692;2023-03-12T10:13:26;4.00;91.70
78325;DHT22;67584;51.400;6.692;2023-03-12T10:19:45;4.30;91.50
78325;DHT22;67584;51.400;6.692;2023-03-12T10:27:26;4.40;91.90
78325;DHT22;67584;51.400;6.692;2023-03-12T10:29:53;4.50;91.90
78325;DHT22;67584;51.400;6.692;2023-03-12T10:32:36;4.60;91.90
78325;DHT22;67584;51.400;6.692;2023-03-12T10:35:20;4.80;91.80
78325;DHT22;67584;51.400;6.692;2023-03-12T10:37:59;4.80;91.70
78325;DHT22;67584;51.400;6.692;2023-03-12T10:40:34;4.90;91.80
78325;DHT22;67584;51.400;6.692;2023-03-12T10:43:02;4.90;91.80
78325;DHT22;67584;51.400;6.692;2023-03-12T10:48:05;5.20;91.60
78325;DHT22;67584;51.400;6.692;2023-03-12T10:50:58;5.20;91.40
78325;DHT22;67584;51.400;6.692;2023-03-12T10:53:49;5.20;91.30
78325;DHT22;67584;51.400;6.692;2023-03-12T10:56:22;5.40;91.70
78325;DHT22;67584;51.400;6.692;2023-03-12T10:58:50;5.20;91.80
78325;DHT22;67584;51.400;6.692;2023-03-12T11:01:30;5.30;91.80
78325;DHT22;67584;51.400;6.692;2023-03-12T11:04:17;5.30;91.40
78325;DHT22;67584;51.400;6.692;2023-03-12T11:09:27;5.80;91.90
78325;DHT22;67584;51.400;6.692;2023-03-12T11:11:53;5.90;91.70
78325;DHT22;67584;51.400;6.692;2023-03-12T11:14:26;6.10;91.50
78325;DHT22;67584;51.400;6.692;2023-03-12T11:16:57;6.40;91.30
78325;DHT22;67584;51.400;6.692;2023-03-12T11:19:41;6.20;90.80
78325;DHT22;67584;51.400;6.692;2023-03-12T11:22:10;6.50;91.10
78325;DHT22;67584;51.400;6.692;2023-03-12T11:24:55;6.50;91.00
78325;DHT22;67584;51.400;6.692;2023-03-12T11:27:37;6.70;90.70
78325;DHT22;67584;51.400;6.692;2023-03-12T11:30:06;7.30;90.80
78325;DHT22;67584;51.400;6.692;2023-03-12T11:32:45;7.30;89.90
78325;DHT22;67584;51.400;6.692;2023-03-12T11:35:43;7.60;89.80
78325;DHT22;67584;51.400;6.692;2023-03-12T11:44:53;7.80;88.80
78325;DHT22;67584;51.400;6.692;2023-03-12T11:57:03;8.20;88.50
78325;DHT22;67584;51.400;6.692;2023-03-12T12:06:16;8.30;88.90
78325;DHT22;67584;51.400;6.692;2023-03-12T12:08:48;8.00;88.70
78325;DHT22;67584;51.400;6.692;2023-03-12T12:19:47;8.40;90.40
78325;DHT22;67584;51.400;6.692;2023-03-12T12:22:34;8.80;91.10
78325;DHT22;67584;51.400;6.692;2023-03-12T12:25:24;8.90;91.00
78325;DHT22;67584;51.400;6.692;2023-03-12T12:28:25;9.00;90.90
78325;DHT22;67584;51.400;6.692;2023-03-12T12:31:28;9.40;90.40
78325;DHT22;67584;51.400;6.692;2023-03-12T12:36:47;9.80;89.00
78325;DHT22;67584;51.400;6.692;2023-03-12T12:39:36;10.10;88.00
78325;DHT22;67584;51.400;6.692;2023-03-12T12:42:14;10.40;87.80
78325;DHT22;67584;51.400;6.692;2023-03-12T12:44:47;10.70;87.40
78325;DHT22;67584;51.400;6.692;2023-03-12T12:47:17;11.60;85.30
78325;DHT22;67584;51.400;6.692;2023-03-12T12:49:53;12.10;83.80
78325;DHT22;67584;51.400;6.692;2023-03-12T12:52:22;12.50;81.30
78325;DHT22;67584;51.400;6.692;2023-03-12T12:55:18;13.00;80.20
78325;DHT22;67584;51.400;6.692;2023-03-12T12:57:55;13.70;78.30
78325;DHT22;67584;51.400;6.692;2023-03-12T13:02:55;14.90;75.60
78325;DHT22;67584;51.400;6.692;2023-03-12T13:08:05;15.60;72.70
78325;DHT22;67584;51.400;6.692;2023-03-12T13:13:17;15.60;72.30
78325;DHT22;67584;51.400;6.692;2023-03-12T13:15:43;15.10;72.10
78325;DHT22;67584;51.400;6.692;2023-03-12T13:18:27;14.50;71.70
78325;DHT22;67584;51.400;6.692;2023-03-12T13:33:58;13.30;74.60
78325;DHT22;67584;51.400;6.692;2023-03-12T13:36:26;13.70;75.50
78325;DHT22;67584;51.400;6.692;2023-03-12T13:41:36;14.60;74.10
78325;DHT22;67584;51.400;6.692;2023-03-12T13:46:47;14.60;74.20
78325;DHT22;67584;51.400;6.692;2023-03-12T13:49:15;14.20;72.70
78325;DHT22;67584;51.400;6.692;2023-03-12T13:51:52;14.20;72.20
78325;DHT22;67584;51.400;6.692;2023-03-12T13:54:23;13.90;74.20
78325;DHT22;67584;51.400;6.692;2023-03-12T13:57:00;13.90;74.70
78325;DHT22;67584;51.400;6.692;2023-03-12T13:59:26;14.30;73.80
78325;DHT22;67584;51.400;6.692;2023-03-12T14:01:57;14.10;73.30
78325;DHT22;67584;51.400;6.692;2023-03-12T14:04:29;13.70;73.70
78325;DHT22;67584;51.400;6.692;2023-03-12T14:12:17;13.10;74.50
78325;DHT22;67584;51.400;6.692;2023-03-12T14:15:14;13.10;75.40
78325;DHT22;67584;51.400;6.692;2023-03-12T14:17:43;13.10;75.60
78325;DHT22;67584;51.400;6.692;2023-03-12T14:22:52;12.90;75.30
78325;DHT22;67584;51.400;6.692;2023-03-12T14:25:35;12.80;75.70
78325;DHT22;67584;51.400;6.692;2023-03-12T14:28:04;12.80;76.60
78325;DHT22;67584;51.400;6.692;2023-03-12T14:30:41;12.70;76.20
78325;DHT22;67584;51.400;6.692;2023-03-12T14:33:12;12.80;75.30
78325;DHT22;67584;51.400;6.692;2023-03-12T14:35:49;13.00;75.60
78325;DHT22;67584;51.400;6.692;2023-03-12T14:38:25;13.10;74.10
78325;DHT22;67584;51.400;6.692;2023-03-12T14:41:18;13.30;74.10
78325;DHT22;67584;51.400;6.692;2023-03-12T14:43:50;13.50;73.40
78325;DHT22;67584;51.400;6.692;2023-03-12T14:46:18;13.50;73.50
78325;DHT22;67584;51.400;6.692;2023-03-12T14:48:47;13.40;73.50
78325;DHT22;67584;51.400;6.692;2023-03-12T14:51:22;13.20;74.10
78325;DHT22;67584;51.400;6.692;2023-03-12T14:53:49;13.00;74.60
78325;DHT22;67584;51.400;6.692;2023-03-12T14:56:27;13.00;72.90
78325;DHT22;67584;51.400;6.692;2023-03-12T14:58:56;13.20;73.50
78325;DHT22;67584;51.400;6.692;2023-03-12T15:01:24;13.40;73.00
78325;DHT22;67584;51.400;6.692;2023-03-12T15:03:57;13.80;71.70
78325;DHT22;67584;51.400;6.692;2023-03-12T15:06:38;13.90;68.30
78325;DHT22;67584;51.400;6.692;2023-03-12T15:09:26;13.70;69.00
78325;DHT22;67584;51.400;6.692;2023-03-12T15:11:55;13.50;69.90
78325;DHT22;67584;51.400;6.692;2023-03-12T15:14:22;13.50;69.60
78325;DHT22;67584;51.400;6.692;2023-03-12T15:16:49;13.30;69.80
78325;DHT22;67584;51.400;6.692;2023-03-12T15:19:19;13.10;69.00
78325;DHT22;67584;51.400;6.692;2023-03-12T15:21:45;13.00;70.10
78325;DHT22;67584;51.400;6.692;2023-03-12T15:24:12;12.90;70.00
78325;DHT22;67584;51.400;6.692;2023-03-12T15:26:38;12.90;70.70
78325;DHT22;67584;51.400;6.692;2023-03-12T15:29:24;12.90;68.30
78325;DHT22;67584;51.400;6.692;2023-03-12T15:31:58;12.80;68.80
78325;DHT22;67584;51.400;6.692;2023-03-12T15:34:35;12.90;68.20
78325;DHT22;67584;51.400;6.692;2023-03-12T15:39:52;12.80;67.80
78325;DHT22;67584;51.400;6.692;2023-03-12T15:42:21;12.90;67.60
78325;DHT22;67584;51.400;6.692;2023-03-12T15:44:56;12.80;66.60
78325;DHT22;67584;51.400;6.692;2023-03-12T15:47:25;12.90;67.50
78325;DHT22;67584;51.400;6.692;2023-03-12T15:49:57;12.90;66.10
78325;DHT22;67584;51.400;6.692;2023-03-12T15:52:26;12.90;66.40
78325;DHT22;67584;51.400;6.692;2023-03-12T16:05:10;12.80;67.30
78325;DHT22;67584;51.400;6.692;2023-03-12T16:07:37;12.60;67.80
78325;DHT22;67584;51.400;6.692;2023-03-12T16:10:03;12.50;66.30
78325;DHT22;67584;51.400;6.692;2023-03-12T16:12:30;12.60;65.60
78325;DHT22;67584;51.400;6.692;2023-03-12T16:14:56;12.40;66.80
78325;DHT22;67584;51.400;6.692;2023-03-12T16:17:22;12.50;66.20
78325;DHT22;67584;51.400;6.692;2023-03-12T16:19:51;12.40;65.20
78325;DHT22;67584;51.400;6.692;2023-03-12T16:22:16;12.30;64.90
78325;DHT22;67584;51.400;6.692;2023-03-12T16:24:44;12.30;64.30
78325;DHT22;67584;51.400;6.692;2023-03-12T16:27:13;12.20;65.50
78325;DHT22;67584;51.400;6.692;2023-03-12T16:29:40;12.10;65.10
78325;DHT22;67584;51.400;6.692;2023-03-12T16:32:11;12.10;65.50
78325;DHT22;67584;51.400;6.692;2023-03-12T16:34:38;12.10;65.40
78325;DHT22;67584;51.400;6.692;2023-03-12T16:37:03;12.10;65.30
78325;DHT22;67584;51.400;6.692;2023-03-12T16:39:29;12.00;65.30
78325;DHT22;67584;51.400;6.692;2023-03-12T16:42:04;12.00;64.80
78325;DHT22;67584;51.400;6.692;2023-03-12T16:44:33;12.10;64.90
78325;DHT22;67584;51.400;6.692;2023-03-12T16:46:59;12.00;65.50
78325;DHT22;67584;51.400;6.692;2023-03-12T16:49:25;11.90;65.90
78325;DHT22;67584;51.400;6.692;2023-03-12T16:51:51;11.80;64.80
78325;DHT22;67584;51.400;6.692;2023-03-12T16:54:17;11.90;65.50
78325;DHT22;67584;51.400;6.692;2023-03-12T16:56:47;11.90;65.30
78325;DHT22;67584;51.400;6.692;2023-03-12T16:59:22;11.90;66.20
78325;DHT22;67584;51.400;6.692;2023-03-12T17:01:49;11.70;65.90
78325;DHT22;67584;51.400;6.692;2023-03-12T17:04:15;11.70;65.90
78325;DHT22;67584;51.400;6.692;2023-03-12T17:06:41;11.80;66.20
78325;DHT22;67584;51.400;6.692;2023-03-12T17:09:07;11.70;66.40
78325;DHT22;67584;51.400;6.692;2023-03-12T17:11:37;11.80;67.00
78325;DHT22;67584;51.400;6.692;2023-03-12T17:14:34;11.60;67.20
78325;DHT22;67584;51.400;6.692;2023-03-12T17:17:02;11.60;67.70
78325;DHT22;67584;51.400;6.692;2023-03-12T17:19:28;11.50;68.00
78325;DHT22;67584;51.400;6.692;2023-03-12T17:21:54;11.30;68.30
78325;DHT22;67584;51.400;6.692;2023-03-12T17:24:19;11.30;68.70
78325;DHT22;67584;51.400;6.692;2023-03-12T17:26:48;11.20;68.90
78325;DHT22;67584;51.400;6.692;2023-03-12T17:29:18;11.20;68.80
78325;DHT22;67584;51.400;6.692;2023-03-12T17:31:44;11.20;68.90
78325;DHT22;67584;51.400;6.692;2023-03-12T17:34:10;11.30;68.70
78325;DHT22;67584;51.400;6.692;2023-03-12T17:36:36;11.20;69.00
78325;DHT22;67584;51.400;6.692;2023-03-12T17:39:03;11.20;69.20
78325;DHT22;67584;51.400;6.692;2023-03-12T17:41:30;11.20;69.10
78325;DHT22;67584;51.400;6.692;2023-03-12T17:43:56;11.20;69.30
78325;DHT22;67584;51.400;6.692;2023-03-12T17:46:27;11.20;69.30
78325;DHT22;67584;51.400;6.692;2023-03-12T17:48:53;11.20;69.60
78325;DHT22;67584;51.400;6.692;2023-03-12T17:51:19;11.20;69.30
78325;DHT22;67584;51.400;6.692;2023-03-12T17:53:48;11.30;69.20
78325;DHT22;67584;51.400;6.692;2023-03-12T17:56:13;11.20;69.40
78325;DHT22;67584;51.400;6.692;2023-03-12T17:58:42;11.20;69.50
78325;DHT22;67584;51.400;6.692;2023-03-12T18:01:08;11.20;69.60
78325;DHT22;67584;51.400;6.692;2023-03-12T18:03:34;11.10;69.90
78325;DHT22;67584;51.400;6.692;2023-03-12T18:06:00;11.10;70.20
78325;DHT22;67584;51.400;6.692;2023-03-12T18:08:26;11.00;69.90
78325;DHT22;67584;51.400;6.692;2023-03-12T18:10:52;11.20;69.50
78325;DHT22;67584;51.400;6.692;2023-03-12T18:13:20;11.10;69.60
78325;DHT22;67584;51.400;6.692;2023-03-12T18:15:54;11.10;70.00
78325;DHT22;67584;51.400;6.692;2023-03-12T18:18:20;11.10;70.20
78325;DHT22;67584;51.400;6.692;2023-03-12T18:20:46;11.10;69.90
78325;DHT22;67584;51.400;6.692;2023-03-12T18:23:14;11.10;69.90
78325;DHT22;67584;51.400;6.692;2023-03-12T18:25:39;11.10;70.20
78325;DHT22;67584;51.400;6.692;2023-03-12T18:28:06;11.20;70.50
78325;DHT22;67584;51.400;6.692;2023-03-12T18:30:31;11.10;70.70
78325;DHT22;67584;51.400;6.692;2023-03-12T18:32:57;11.00;70.80
78325;DHT22;67584;51.400;6.692;2023-03-12T18:35:24;11.10;70.80
78325;DHT22;67584;51.400;6.692;2023-03-12T18:37:54;11.10;70.80
78325;DHT22;67584;51.400;6.692;2023-03-12T18:40:20;11.10;70.60
78325;DHT22;67584;51.400;6.692;2023-03-12T18:42:46;11.10;70.90
78325;DHT22;67584;51.400;6.692;2023-03-12T18:45:12;11.20;70.90
78325;DHT22;67584;51.400;6.692;2023-03-12T18:47:38;11.10;70.80
78325;DHT22;67584;51.400;6.692;2023-03-12T18:50:08;11.10;70.60
78325;DHT22;67584;51.400;6.692;2023-03-12T18:52:34;11.20;70.60
78325;DHT22;67584;51.400;6.692;2023-03-12T18:55:00;11.20;70.80
78325;DHT22;67584;51.400;6.692;2023-03-12T18:57:26;11.20;70.90
78325;DHT22;67584;51.400;6.692;2023-03-12T18:59:51;11.10;71.00
78325;DHT22;67584;51.400;6.692;2023-03-12T19:02:17;11.20;71.10
78325;DHT22;67584;51.400;6.692;2023-03-12T19:04:43;11.00;71.30
78325;DHT22;67584;51.400;6.692;2023-03-12T19:07:09;10.90;71.60
78325;DHT22;67584;51.400;6.692;2023-03-12T19:09:37;10.90;71.60
78325;DHT22;67584;51.400;6.692;2023-03-12T19:12:03;11.10;71.50
78325;DHT22;67584;51.400;6.692;2023-03-12T19:14:29;11.20;71.30
78325;DHT22;67584;51.400;6.692;2023-03-12T19:16:56;11.30;71.30
78325;DHT22;67584;51.400;6.692;2023-03-12T19:19:22;11.20;71.50
78325;DHT22;67584;51.400;6.692;2023-03-12T19:21:48;11.20;71.80
78325;DHT22;67584;51.400;6.692;2023-03-12T19:24:14;11.20;71.90
78325;DHT22;67584;51.400;6.692;2023-03-12T19:26:39;11.00;71.80
78325;DHT22;67584;51.400;6.692;2023-03-12T19:29:05;11.20;72.10
78325;DHT22;67584;51.400;6.692;2023-03-12T19:31:31;11.10;72.10
78325;DHT22;67584;51.400;6.692;2023-03-12T19:33:57;11.00;72.10
78325;DHT22;67584;51.400;6.692;2023-03-12T19:36:22;11.00;72.20
78325;DHT22;67584;51.400;6.692;2023-03-12T19:38:48;10.90;72.60
78325;DHT22;67584;51.400;6.692;2023-03-12T19:41:14;10.90;72.70
78325;DHT22;67584;51.400;6.692;2023-03-12T19:43:40;10.70;73.00
78325;DHT22;67584;51.400;6.692;2023-03-12T19:46:06;10.70;73.20
78325;DHT22;67584;51.400;6.692;2023-03-12T19:48:32;10.70;73.40
78325;DHT22;67584;51.400;6.692;2023-03-12T19:51:04;10.60;73.50
78325;DHT22;67584;51.400;6.692;2023-03-12T19:53:30;10.60;73.70
78325;DHT22;67584;51.400;6.692;2023-03-12T19:55:56;10.40;73.90
78325;DHT22;67584;51.400;6.692;2023-03-12T19:58:22;10.40;74.00
78325;DHT22;67584;51.400;6.692;2023-03-12T20:00:48;10.30;74.40
78325;DHT22;67584;51.400;6.692;2023-03-12T20:03:14;10.20;74.60
78325;DHT22;67584;51.400;6.692;2023-03-12T20:05:43;10.30;74.80
78325;DHT22;67584;51.400;6.692;2023-03-12T20:08:09;10.20;74.80
78325;DHT22;67584;51.400;6.692;2023-03-12T20:10:37;10.10;75.10
78325;DHT22;67584;51.400;6.692;2023-03-12T20:13:02;10.10;75.20
78325;DHT22;67584;51.400;6.692;2023-03-12T20:15:31;10.10;75.20
78325;DHT22;67584;51.400;6.692;2023-03-12T20:17:57;10.00;75.70
78325;DHT22;67584;51.400;6.692;2023-03-12T20:20:24;10.00;75.40
78325;DHT22;67584;51.400;6.692;2023-03-12T20:22:50;10.10;75.90
78325;DHT22;67584;51.400;6.692;2023-03-12T20:25:16;10.00;75.70
78325;DHT22;67584;51.400;6.692;2023-03-12T20:27:42;10.10;75.80
78325;DHT22;67584;51.400;6.692;2023-03-12T20:30:09;10.10;75.90
78325;DHT22;67584;51.400;6.692;2023-03-12T20:32:35;10.00;75.80
78325;DHT22;67584;51.400;6.692;2023-03-12T20:35:01;10.10;75.90
78325;DHT22;67584;51.400;6.692;2023-03-12T20:37:26;10.10;76.00
78325;DHT22;67584;51.400;6.692;2023-03-12T20:39:52;10.00;76.10
78325;DHT22;67584;51.400;6.692;2023-03-12T20:42:18;9.90;76.30
78325;DHT22;67584;51.400;6.692;2023-03-12T20:44:43;9.80;76.40
78325;DHT22;67584;51.400;6.692;2023-03-12T20:47:15;9.80;76.60
78325;DHT22;67584;51.400;6.692;2023-03-12T20:49:44;9.80;76.90
78325;DHT22;67584;51.400;6.692;2023-03-12T20:52:10;9.80;76.90
78325;DHT22;67584;51.400;6.692;2023-03-12T20:54:36;9.70;77.00
78325;DHT22;67584;51.400;6.692;2023-03-12T20:57:01;9.70;77.00
78325;DHT22;67584;51.400;6.692;2023-03-12T20:59:27;9.80;76.90
78325;DHT22;67584;51.400;6.692;2023-03-12T21:01:53;9.70;76.80
78325;DHT22;67584;51.400;6.692;2023-03-12T21:04:18;9.70;76.80
78325;DHT22;67584;51.400;6.692;2023-03-12T21:06:44;9.70;76.80
78325;DHT22;67584;51.400;6.692;2023-03-12T21:09:12;9.80;76.80
78325;DHT22;67584;51.400;6.692;2023-03-12T21:11:37;9.70;76.70
78325;DHT22;67584;51.400;6.692;2023-03-12T21:14:04;9.80;76.70
78325;DHT22;67584;51.400;6.692;2023-03-12T21:16:30;9.60;76.60
78325;DHT22;67584;51.400;6.692;2023-03-12T21:18:57;9.60;76.70
78325;DHT22;67584;51.400;6.692;2023-03-12T21:21:23;9.60;76.60
78325;DHT22;67584;51.400;6.692;2023-03-12T21:23:49;9.70;76.60
78325;DHT22;67584;51.400;6.692;2023-03-12T21:26:14;9.70;76.60
78325;DHT22;67584;51.400;6.692;2023-03-12T21:28:44;9.70;76.50
78325;DHT22;67584;51.400;6.692;2023-03-12T21:31:12;9.70;76.40
78325;DHT22;67584;51.400;6.692;2023-03-12T21:33:38;9.70;76.30
78325;DHT22;67584;51.400;6.692;2023-03-12T21:36:05;9.70;76.20
78325;DHT22;67584;51.400;6.692;2023-03-12T21:38:32;9.70;76.20
78325;DHT22;67584;51.400;6.692;2023-03-12T21:41:06;9.70;76.30
78325;DHT22;67584;51.400;6.692;2023-03-12T21:43:33;9.70;76.40
78325;DHT22;67584;51.400;6.692;2023-03-12T21:46:14;9.70;76.20
78325;DHT22;67584;51.400;6.692;2023-03-12T21:48:42;9.70;76.10
78325;DHT22;67584;51.400;6.692;2023-03-12T21:51:10;9.70;76.10
78325;DHT22;67584;51.400;6.692;2023-03-12T21:53:37;9.70;76.00
78325;DHT22;67584;51.400;6.692;2023-03-12T21:56:04;9.70;76.10
78325;DHT22;67584;51.400;6.692;2023-03-12T21:58:32;9.70;76.20
78325;DHT22;67584;51.400;6.692;2023-03-12T22:01:07;9.70;76.20
78325;DHT22;67584;51.400;6.692;2023-03-12T22:03:34;9.70;76.10
78325;DHT22;67584;51.400;6.692;2023-03-12T22:06:00;9.80;76.20
78325;DHT22;67584;51.400;6.692;2023-03-12T22:08:25;9.70;76.00
78325;DHT22;67584;51.400;6.692;2023-03-12T22:10:51;9.70;76.10
78325;DHT22;67584;51.400;6.692;2023-03-12T22:13:17;9.70;76.20
78325;DHT22;67584;51.400;6.692;2023-03-12T22:15:51;9.70;76.20
78325;DHT22;67584;51.400;6.692;2023-03-12T22:18:17;9.80;76.10
78325;DHT22;67584;51.400;6.692;2023-03-12T22:20:49;9.80;76.10
78325;DHT22;67584;51.400;6.692;2023-03-12T22:23:19;9.80;76.00
78325;DHT22;67584;51.400;6.692;2023-03-12T22:25:45;9.90;75.90
78325;DHT22;67584;51.400;6.692;2023-03-12T22:28:12;9.90;75.80
78325;DHT22;67584;51.400;6.692;2023-03-12T22:30:38;9.90;75.70
78325;DHT22;67584;51.400;6.692;2023-03-12T22:33:04;10.00;75.70
78325;DHT22;67584;51.400;6.692;2023-03-12T22:35:29;10.00;75.70
78325;DHT22;67584;51.400;6.692;2023-03-12T22:37:55;10.00;75.60
78325;DHT22;67584;51.400;6.692;2023-03-12T22:40:21;10.00;75.40
78325;DHT22;67584;51.400;6.692;2023-03-12T22:42:51;10.00;75.40
78325;DHT22;67584;51.400;6.692;2023-03-12T22:45:17;10.10;75.30
78325;DHT22;67584;51.400;6.692;2023-03-12T22:47:43;10.10;75.50
78325;DHT22;67584;51.400;6.692;2023-03-12T22:50:10;10.10;75.30
78325;DHT22;67584;51.400;6.692;2023-03-12T22:52:36;10.10;75.50
78325;DHT22;67584;51.400;6.692;2023-03-12T22:55:02;10.10;75.60
78325;DHT22;67584;51.400;6.692;2023-03-12T22:57:28;10.00;75.60
78325;DHT22;67584;51.400;6.692;2023-03-12T22:59:57;10.00;75.50
78325;DHT22;67584;51.400;6.692;2023-03-12T23:02:23;10.00;75.60
78325;DHT22;67584;51.400;6.692;2023-03-12T23:04:48;10.00;75.60
78325;DHT22;67584;51.400;6.692;2023-03-12T23:07:14;10.00;75.70
78325;DHT22;67584;51.400;6.692;2023-03-12T23:09:40;10.10;75.60
78325;DHT22;67584;51.400;6.692;2023-03-12T23:12:09;10.10;75.60
78325;DHT22;67584;51.400;6.692;2023-03-12T23:14:34;10.10;75.50
78325;DHT22;67584;51.400;6.692;2023-03-12T23:17:00;10.10;75.50
78325;DHT22;67584;51.400;6.692;2023-03-12T23:19:30;10.10;75.40
78325;DHT22;67584;51.400;6.692;2023-03-12T23:21:56;10.10;75.50
78325;DHT22;67584;51.400;6.692;2023-03-12T23:24:25;10.10;75.30
78325;DHT22;67584;51.400;6.692;2023-03-12T23:26:50;10.20;75.30
78325;DHT22;67584;51.400;6.692;2023-03-12T23:29:17;10.20;75.30
78325;DHT22;67584;51.400;6.692;2023-03-12T23:31:43;10.20;75.30
78325;DHT22;67584;51.400;6.692;2023-03-12T23:34:09;10.20;75.30
78325;DHT22;67584;51.400;6.692;2023-03-12T23:36:35;10.20;75.40
78325;DHT22;67584;51.400;6.692;2023-03-12T23:39:02;10.20;75.40
78325;DHT22;67584;51.400;6.692;2023-03-12T23:41:28;10.20;75.30
78325;DHT22;67584;51.400;6.692;2023-03-12T23:43:55;10.30;75.30
78325;DHT22;67584;51.400;6.692;2023-03-12T23:46:21;10.30;75.30
78325;DHT22;67584;51.400;6.692;2023-03-12T23:48:48;10.30;75.40
78325;DHT22;67584;51.400;6.692;2023-03-12T23:51:19;10.20;75.60
78325;DHT22;67584;51.400;6.692;2023-03-12T23:53:46;10.30;75.80
78325;DHT22;67584;51.400;6.692;2023-03-12T23:56:18;10.30;76.00
78325;DHT22;67584;51.400;6.692;2023-03-12T23:58:44;10.30;76.30
